Time;durP1;ratioP1;P1;durP2;ratioP2;P2;SDS_P1;SDS_P2;PMS_P1;PMS_P2;Temp;Humidity;BMP_temperature;BMP_pressure;BME280_temperature;BME280_humidity;BME280_pressure;Samples;Min_cycle;Max_cycle;Signal;HPM_P1;HPM_P2
2022/10/24 00:02:09;;;;;;;;;;;;;;;;;;4940605;29;19922;-87
2022/10/24 00:04:36;;;;;;;;;;;;;;;;;;4939813;29;19923;-87
2022/10/24 00:07:01;;;;;;;;;;;;;;;;;;4956216;29;20415;-87
2022/10/24 00:09:27;;;;;;;;;;;;;;;;;;4956364;29;20005;-88
2022/10/24 00:11:52;;;;;;;;;;;;;;;;;;4956257;29;20004;-88
2022/10/24 00:14:17;;;;;;;;;;;;;;;;;;4971065;28;19924;-88
2022/10/24 00:16:43;;;;;;;;;;;;;;;;;;4956339;29;20285;-85
2022/10/24 00:19:08;;;;;;;;;;;;;;;;;;4957437;29;19922;-86
2022/10/24 00:21:34;;;;;;;;;;;;;;;;;;4959159;29;20394;-88
2022/10/24 00:23:59;;;;;;;;;;;;;;;;;;4958638;29;20014;-87
2022/10/24 00:26:24;;;;;;;;;;;;;;;;;;4956146;29;19952;-88
2022/10/24 00:28:50;;;;;;;;;;;;;;;;;;4956185;29;20358;-86
2022/10/24 00:31:17;;;;;;;;;;;;;;;;;;4956854;29;19936;-90
2022/10/24 00:33:42;;;;;;;;;;;;;;;;;;4959249;29;19926;-88
2022/10/24 00:36:12;;;;;;;;;;;;;;;;;;4967095;29;19919;-84
2022/10/24 00:38:37;;;;;;;;;;;;;;;;;;4961367;29;19922;-82
2022/10/24 00:41:03;;;;;;;;;;;;;;;;;;4973382;29;19920;-87
2022/10/24 00:43:28;;;;;;;;;;;;;;;;;;4959222;29;19918;-85
2022/10/24 00:45:54;;;;;;;;;;;;;;;;;;4959287;29;19919;-86
2022/10/24 00:48:35;;;;;;;;;;;;;;;;;;4956062;29;19923;-85
2022/10/24 00:51:15;;;;;;;;;;;;;;;;;;4954685;29;19936;-86
2022/10/24 00:53:43;;;;;;;;;;;;;;;;;;4954668;29;20428;-86
2022/10/24 00:56:10;;;;;;;;;;;;;;;;;;4956814;28;20317;-88
2022/10/24 00:58:36;;;;;;;;;;;;;;;;;;4959831;29;19918;-86
2022/10/24 01:01:01;;;;;;;;;;;;;;;;;;4960198;29;20005;-88
2022/10/24 01:03:27;;;;;;;;;;;;;;;;;;4959740;29;19919;-87
2022/10/24 01:05:55;;;;;;;;;;;;;;;;;;4959584;29;19922;-88
2022/10/24 01:08:32;;;;;;;;;;;;;;;;;;4959516;29;20033;-87
2022/10/24 01:11:01;;;;;;;;;;;;;;;;;;4959629;29;19919;-85
2022/10/24 01:13:38;;;;;;;;;;;;;;;;;;4959242;29;19925;-84
2022/10/24 01:16:12;;;;;;;;;;;;;;;;;;4959329;29;20018;-86
2022/10/24 01:18:45;;;;;;;;;;;;;;;;;;4959271;29;19918;-83
2022/10/24 01:21:15;;;;;;;;;;;;;;;;;;4959364;29;19973;-84
2022/10/24 01:23:59;;;;;;;;;;;;;;;;;;4959358;29;19918;-86
2022/10/24 01:26:53;;;;;;;;;;;;;;;;;;4957938;29;20393;-82
2022/10/24 01:29:28;;;;;;;;;;;;;;;;;;4959379;29;19973;-83
2022/10/24 01:32:01;;;;;;;;;;;;;;;;;;4941881;29;19925;-85
2022/10/24 01:34:30;;;;;;;;;;;;;;;;;;4959072;29;19961;-87
2022/10/24 01:37:00;;;;;;;;;;;;;;;;;;4959385;29;19918;-87
2022/10/24 01:39:27;;;;;;;;;;;;;;;;;;4959198;29;19925;-87
2022/10/24 01:41:54;;;;;;;;;;;;;;;;;;4959053;29;19929;-88
2022/10/24 01:44:22;;;;;;;;;;;;;;;;;;4958780;29;19972;-86
2022/10/24 01:46:53;;;;;;;;;;;;;;;;;;4942635;29;19919;-81
2022/10/24 01:49:20;;;;;;;;;;;;;;;;;;4957546;29;19926;-86
2022/10/24 01:51:47;;;;;;;;;;;;;;;;;;4960846;29;19925;-84
2022/10/24 01:54:13;;;;;;;;;;;;;;;;;;4961733;29;20297;-81
2022/10/24 01:56:39;;;;;;;;;;;;;;;;;;4961710;29;20014;-84
2022/10/24 01:59:05;;;;;;;;;;;;;;;;;;4961303;29;19965;-81
2022/10/24 02:01:30;;;;;;;;;;;;;;;;;;4961185;29;19922;-82
2022/10/24 02:03:57;;;;;;;;;;;;;;;;;;4960565;29;19961;-82
2022/10/24 02:06:28;;;;;;;;;;;;;;;;;;4961684;29;19922;-82
2022/10/24 02:08:57;;;;;;;;;;;;;;;;;;4959276;29;20362;-83
2022/10/24 02:11:22;;;;;;;;;;;;;;;;;;4958403;29;19922;-86
2022/10/24 02:14:06;;;;;;;;;;;;;;;;;;4958233;29;19918;-84
2022/10/24 02:16:33;;;;;;;;;;;;;;;;;;4957324;29;19922;-84
2022/10/24 02:18:59;;;;;;;;;;;;;;;;;;4960382;29;19922;-85
2022/10/24 02:21:30;;;;;;;;;;;;;;;;;;4960904;29;19977;-83
2022/10/24 02:24:00;;;;;;;;;;;;;;;;;;4960568;29;19919;-87
2022/10/24 02:26:29;;;;;;;;;;;;;;;;;;4958095;29;20361;-86
2022/10/24 02:28:57;;;;;;;;;;;;;;;;;;4958151;29;20366;-84
2022/10/24 02:31:24;;;;;;;;;;;;;;;;;;4958381;29;19922;-83
2022/10/24 02:33:50;;;;;;;;;;;;;;;;;;4959963;29;19918;-87
2022/10/24 02:36:17;;;;;;;;;;;;;;;;;;4960256;29;19919;-84
2022/10/24 02:38:43;;;;;;;;;;;;;;;;;;4960027;29;19922;-81
2022/10/24 02:41:11;;;;;;;;;;;;;;;;;;4959246;29;19919;-87
2022/10/24 02:43:38;;;;;;;;;;;;;;;;;;4942016;29;19914;-84
2022/10/24 02:46:04;;;;;;;;;;;;;;;;;;4957868;29;19918;-86
2022/10/24 02:48:33;;;;;;;;;;;;;;;;;;4940559;29;20281;-86
2022/10/24 02:50:59;;;;;;;;;;;;;;;;;;4940502;29;20378;-86
2022/10/24 02:53:25;;;;;;;;;;;;;;;;;;4957741;29;19918;-85
2022/10/24 02:55:50;;;;;;;;;;;;;;;;;;4958087;29;20038;-84
2022/10/24 02:58:16;;;;;;;;;;;;;;;;;;4958853;29;20306;-84
2022/10/24 03:00:41;;;;;;;;;;;;;;;;;;4959408;29;19929;-85
2022/10/24 03:03:06;;;;;;;;;;;;;;;;;;4960049;29;20334;-81
2022/10/24 03:05:32;;;;;;;;;;;;;;;;;;4940256;29;19989;-83
2022/10/24 03:07:57;;;;;;;;;;;;;;;;;;4957536;29;19969;-80
2022/10/24 03:10:23;;;;;;;;;;;;;;;;;;4940100;29;20389;-81
2022/10/24 03:12:48;;;;;;;;;;;;;;;;;;4957274;29;19914;-89
2022/10/24 03:15:13;;;;;;;;;;;;;;;;;;4957251;29;19922;-87
2022/10/24 03:17:39;;;;;;;;;;;;;;;;;;4960016;29;19977;-85
2022/10/24 03:20:04;;;;;;;;;;;;;;;;;;4961131;28;19925;-86
2022/10/24 03:22:30;;;;;;;;;;;;;;;;;;4962507;29;19918;-89
2022/10/24 03:24:55;;;;;;;;;;;;;;;;;;4961750;29;19926;-85
2022/10/24 03:27:21;;;;;;;;;;;;;;;;;;4958585;29;19919;-88
2022/10/24 03:29:47;;;;;;;;;;;;;;;;;;4957035;29;19962;-87
2022/10/24 03:32:12;;;;;;;;;;;;;;;;;;4956975;29;20432;-88
2022/10/24 03:34:38;;;;;;;;;;;;;;;;;;4956876;29;19919;-88
2022/10/24 03:37:03;;;;;;;;;;;;;;;;;;4956859;29;19919;-88
2022/10/24 03:39:28;;;;;;;;;;;;;;;;;;4955550;29;20368;-88
2022/10/24 03:41:54;;;;;;;;;;;;;;;;;;4956803;29;20014;-88
2022/10/24 03:44:19;;;;;;;;;;;;;;;;;;4955559;29;19919;-88
2022/10/24 03:46:45;;;;;;;;;;;;;;;;;;4959551;29;20388;-84
2022/10/24 03:49:10;;;;;;;;;;;;;;;;;;4962033;29;19922;-88
2022/10/24 03:51:36;;;;;;;;;;;;;;;;;;4945431;29;19919;-87
2022/10/24 03:54:01;;;;;;;;;;;;;;;;;;4962063;29;19919;-85
2022/10/24 03:56:26;;;;;;;;;;;;;;;;;;4961789;29;20346;-87
2022/10/24 03:58:52;;;;;;;;;;;;;;;;;;4960373;29;19922;-87
2022/10/24 04:01:18;;;;;;;;;;;;;;;;;;4957196;29;20037;-88
2022/10/24 04:03:44;;;;;;;;;;;;;;;;;;4923836;29;20396;-88
2022/10/24 04:06:09;;;;;;;;;;;;;;;;;;4956435;29;20389;-88
2022/10/24 04:08:35;;;;;;;;;;;;;;;;;;4956412;29;20012;-88
2022/10/24 04:11:00;;;;;;;;;;;;;;;;;;4956457;29;20024;-90
2022/10/24 04:13:25;;;;;;;;;;;;;;;;;;4956269;29;19968;-87
2022/10/24 04:15:51;;;;;;;;;;;;;;;;;;4939062;29;19969;-87
2022/10/24 04:18:16;;;;;;;;;;;;;;;;;;4958524;29;19926;-88
2022/10/24 04:20:42;;;;;;;;;;;;;;;;;;4957956;29;19918;-89
2022/10/24 04:23:07;;;;;;;;;;;;;;;;;;4956671;29;19915;-87
2022/10/24 04:25:33;;;;;;;;;;;;;;;;;;4940382;29;19933;-89
2022/10/24 04:27:58;;;;;;;;;;;;;;;;;;4956686;29;19919;-88
2022/10/24 04:30:24;;;;;;;;;;;;;;;;;;4956183;28;19982;-87
2022/10/24 04:32:49;;;;;;;;;;;;;;;;;;4956162;29;19919;-87
2022/10/24 04:35:15;;;;;;;;;;;;;;;;;;4954775;29;19915;-84
2022/10/24 04:37:40;;;;;;;;;;;;;;;;;;4955910;29;20013;-84
2022/10/24 04:40:06;;;;;;;;;;;;;;;;;;4956096;29;19952;-88
2022/10/24 04:42:31;;;;;;;;;;;;;;;;;;4940840;29;19978;-84
2022/10/24 04:44:57;;;;;;;;;;;;;;;;;;4948728;29;19969;-88
2022/10/24 04:47:22;;;;;;;;;;;;;;;;;;4936328;29;19941;-85
2022/10/24 04:49:47;;;;;;;;;;;;;;;;;;4951729;28;19924;-85
2022/10/24 04:52:13;;;;;;;;;;;;;;;;;;4957702;29;19958;-85
2022/10/24 04:54:38;;;;;;;;;;;;;;;;;;4962726;29;19926;-89
2022/10/24 04:57:04;;;;;;;;;;;;;;;;;;4940993;29;20274;-89
2022/10/24 04:59:29;;;;;;;;;;;;;;;;;;4936971;29;19965;-90
2022/10/24 05:01:55;;;;;;;;;;;;;;;;;;4937604;29;19946;-89
2022/10/24 05:04:20;;;;;;;;;;;;;;;;;;4922753;29;19977;-89
2022/10/24 05:06:46;;;;;;;;;;;;;;;;;;4940267;29;20424;-88
2022/10/24 05:09:12;;;;;;;;;;;;;;;;;;4938260;29;20009;-89
2022/10/24 05:11:37;;;;;;;;;;;;;;;;;;4938619;29;20374;-88
2022/10/24 05:14:03;;;;;;;;;;;;;;;;;;4938325;29;19918;-87
2022/10/24 05:16:28;;;;;;;;;;;;;;;;;;4935746;29;19923;-88
2022/10/24 05:18:54;;;;;;;;;;;;;;;;;;4937859;29;20404;-89
2022/10/24 05:21:19;;;;;;;;;;;;;;;;;;4938461;29;19991;-88
2022/10/24 05:23:44;;;;;;;;;;;;;;;;;;4936924;29;19962;-88
2022/10/24 05:26:10;;;;;;;;;;;;;;;;;;4936490;29;20004;-86
2022/10/24 05:28:35;;;;;;;;;;;;;;;;;;4950432;28;20021;-88
2022/10/24 05:31:01;;;;;;;;;;;;;;;;;;4937199;29;20029;-87
2022/10/24 05:33:26;;;;;;;;;;;;;;;;;;4955294;29;20327;-89
2022/10/24 05:35:52;;;;;;;;;;;;;;;;;;4955238;29;20406;-89
2022/10/24 05:38:18;;;;;;;;;;;;;;;;;;4954827;29;19919;-89
2022/10/24 05:40:46;;;;;;;;;;;;;;;;;;4955318;29;20294;-86
2022/10/24 05:43:12;;;;;;;;;;;;;;;;;;4957330;28;19973;-87
2022/10/24 05:45:37;;;;;;;;;;;;;;;;;;4958958;29;19918;-87
2022/10/24 05:48:03;;;;;;;;;;;;;;;;;;4958709;29;19958;-88
2022/10/24 05:50:29;;;;;;;;;;;;;;;;;;4941453;29;20377;-87
2022/10/24 05:52:55;;;;;;;;;;;;;;;;;;4941365;29;20282;-88
2022/10/24 05:55:20;;;;;;;;;;;;;;;;;;4941409;29;19918;-88
2022/10/24 05:57:46;;;;;;;;;;;;;;;;;;4958049;29;19918;-87
2022/10/24 06:00:13;;;;;;;;;;;;;;;;;;4941372;29;20013;-88
2022/10/24 06:02:39;;;;;;;;;;;;;;;;;;4958394;29;20026;-88
2022/10/24 06:05:04;;;;;;;;;;;;;;;;;;4958365;29;19929;-89
2022/10/24 06:07:30;;;;;;;;;;;;;;;;;;4958378;29;20293;-89
2022/10/24 06:09:55;;;;;;;;;;;;;;;;;;4958343;29;19969;-88
2022/10/24 06:12:21;;;;;;;;;;;;;;;;;;4958443;29;20327;-88
2022/10/24 06:14:46;;;;;;;;;;;;;;;;;;4941087;29;19921;-89
2022/10/24 06:17:12;;;;;;;;;;;;;;;;;;4957716;29;19962;-89
2022/10/24 06:19:37;;;;;;;;;;;;;;;;;;4958167;29;19919;-87
2022/10/24 06:22:04;;;;;;;;;;;;;;;;;;4958176;29;20063;-89
2022/10/24 06:24:29;;;;;;;;;;;;;;;;;;4958069;29;20294;-88
2022/10/24 06:26:55;;;;;;;;;;;;;;;;;;4958267;29;19919;-87
2022/10/24 06:29:20;;;;;;;;;;;;;;;;;;4958113;29;19919;-87
2022/10/24 06:31:45;;;;;;;;;;;;;;;;;;4940989;29;20391;-86
2022/10/24 06:34:11;;;;;;;;;;;;;;;;;;4958126;29;19918;-86
2022/10/24 06:36:36;;;;;;;;;;;;;;;;;;4958429;29;19919;-84
2022/10/24 06:39:02;;;;;;;;;;;;;;;;;;4957459;29;19918;-88
2022/10/24 06:41:27;;;;;;;;;;;;;;;;;;4940505;29;19915;-87
2022/10/24 06:43:55;;;;;;;;;;;;;;;;;;4940609;29;19971;-87
2022/10/24 06:46:22;;;;;;;;;;;;;;;;;;4957869;29;19915;-87
2022/10/24 06:48:48;;;;;;;;;;;;;;;;;;4957505;29;19919;-88
2022/10/24 06:51:15;;;;;;;;;;;;;;;;;;4957719;29;19922;-88
2022/10/24 06:53:40;;;;;;;;;;;;;;;;;;4957597;28;19978;-85
2022/10/24 06:56:06;;;;;;;;;;;;;;;;;;4940256;29;20366;-84
2022/10/24 06:58:35;;;;;;;;;;;;;;;;;;4957073;29;19918;-85
2022/10/24 07:01:06;;;;;;;;;;;;;;;;;;4957009;29;19918;-86
2022/10/24 07:03:31;;;;;;;;;;;;;;;;;;4957906;29;19918;-87
2022/10/24 07:05:57;;;;;;;;;;;;;;;;;;4941217;29;19942;-87
2022/10/24 07:08:23;;;;;;;;;;;;;;;;;;4939498;29;19923;-87
2022/10/24 07:10:48;;;;;;;;;;;;;;;;;;4939394;29;19926;-88
2022/10/24 07:13:13;;;;;;;;;;;;;;;;;;4922668;29;19922;-87
2022/10/24 07:15:39;;;;;;;;;;;;;;;;;;4938387;29;19919;-87
2022/10/24 07:18:04;;;;;;;;;;;;;;;;;;4937541;29;19926;-86
2022/10/24 07:20:30;;;;;;;;;;;;;;;;;;4937862;29;19966;-86
2022/10/24 07:22:55;;;;;;;;;;;;;;;;;;4938081;29;20381;-87
2022/10/24 07:25:20;;;;;;;;;;;;;;;;;;4920947;29;19919;-87
2022/10/24 07:27:46;;;;;;;;;;;;;;;;;;4937842;29;19925;-86
2022/10/24 07:30:14;;;;;;;;;;;;;;;;;;4938582;29;19990;-86
2022/10/24 07:32:40;;;;;;;;;;;;;;;;;;4937670;29;19919;-86
2022/10/24 07:35:05;;;;;;;;;;;;;;;;;;4937922;29;19925;-86
2022/10/24 07:37:31;;;;;;;;;;;;;;;;;;4937180;29;19956;-87
2022/10/24 07:39:56;;;;;;;;;;;;;;;;;;4937691;29;19919;-84
2022/10/24 07:42:22;;;;;;;;;;;;;;;;;;4937475;29;19922;-88
2022/10/24 07:44:47;;;;;;;;;;;;;;;;;;4937723;29;19926;-87
2022/10/24 07:47:13;;;;;;;;;;;;;;;;;;4937585;29;19935;-87
2022/10/24 07:49:38;;;;;;;;;;;;;;;;;;4920453;29;19922;-86
2022/10/24 07:52:04;;;;;;;;;;;;;;;;;;4937311;29;19919;-87
2022/10/24 07:54:30;;;;;;;;;;;;;;;;;;4937505;29;20010;-88
2022/10/24 07:56:55;;;;;;;;;;;;;;;;;;4937300;29;20442;-88
2022/10/24 07:59:20;;;;;;;;;;;;;;;;;;4936938;29;19919;-88
2022/10/24 08:01:46;;;;;;;;;;;;;;;;;;4916804;29;19923;-88
2022/10/24 08:04:12;;;;;;;;;;;;;;;;;;4918065;29;20367;-86
2022/10/24 08:06:39;;;;;;;;;;;;;;;;;;4917911;29;19915;-87
2022/10/24 08:09:04;;;;;;;;;;;;;;;;;;4927891;29;19919;-86
2022/10/24 08:11:31;;;;;;;;;;;;;;;;;;4940755;29;19934;-86
2022/10/24 08:13:57;;;;;;;;;;;;;;;;;;4939682;29;19915;-87
2022/10/24 08:16:23;;;;;;;;;;;;;;;;;;4938265;29;20297;-86
2022/10/24 08:18:49;;;;;;;;;;;;;;;;;;4939825;29;19919;-85
2022/10/24 08:21:16;;;;;;;;;;;;;;;;;;4938438;29;20449;-86
2022/10/24 08:23:43;;;;;;;;;;;;;;;;;;4938753;29;20278;-86
2022/10/24 08:26:10;;;;;;;;;;;;;;;;;;4939537;29;19998;-85
2022/10/24 08:28:36;;;;;;;;;;;;;;;;;;4939767;29;20397;-86
2022/10/24 08:31:03;;;;;;;;;;;;;;;;;;4938478;29;19919;-85
2022/10/24 08:33:29;;;;;;;;;;;;;;;;;;4940337;29;20017;-85
2022/10/24 08:35:57;;;;;;;;;;;;;;;;;;4939350;29;19958;-88
2022/10/24 08:38:22;;;;;;;;;;;;;;;;;;4940581;29;19918;-87
2022/10/24 08:40:48;;;;;;;;;;;;;;;;;;4939405;29;20018;-85
2022/10/24 08:43:15;;;;;;;;;;;;;;;;;;4941304;29;20450;-87
2022/10/24 08:45:46;;;;;;;;;;;;;;;;;;4941360;29;19925;-86
2022/10/24 08:48:12;;;;;;;;;;;;;;;;;;4944051;29;19919;-85
2022/10/24 08:50:40;;;;;;;;;;;;;;;;;;4942216;29;19919;-85
2022/10/24 08:53:10;;;;;;;;;;;;;;;;;;4953186;29;19910;-86
2022/10/24 08:55:43;;;;;;;;;;;;;;;;;;4954679;29;19998;-83
2022/10/24 08:58:12;;;;;;;;;;;;;;;;;;4932367;29;19919;-87
2022/10/24 09:00:40;;;;;;;;;;;;;;;;;;4927817;29;20026;-87
2022/10/24 09:03:21;;;;;;;;;;;;;;;;;;4939261;29;20389;-86
2022/10/24 09:05:48;;;;;;;;;;;;;;;;;;4941857;29;19925;-85
2022/10/24 09:08:21;;;;;;;;;;;;;;;;;;4924242;29;19922;-84
2022/10/24 09:10:58;;;;;;;;;;;;;;;;;;4941603;29;20017;-84
2022/10/24 09:13:25;;;;;;;;;;;;;;;;;;4925326;29;19951;-83
2022/10/24 09:15:50;;;;;;;;;;;;;;;;;;4942162;29;19953;-84
2022/10/24 09:18:21;;;;;;;;;;;;;;;;;;4926578;29;19926;-86
2022/10/24 09:20:47;;;;;;;;;;;;;;;;;;4944837;29;19962;-85
2022/10/24 09:23:14;;;;;;;;;;;;;;;;;;4945484;29;19918;-85
2022/10/24 09:25:41;;;;;;;;;;;;;;;;;;4926660;29;20302;-85
2022/10/24 09:28:07;;;;;;;;;;;;;;;;;;4940988;29;20270;-85
2022/10/24 09:30:34;;;;;;;;;;;;;;;;;;4940668;29;19923;-84
2022/10/24 09:33:03;;;;;;;;;;;;;;;;;;4940688;29;19926;-85
2022/10/24 09:35:29;;;;;;;;;;;;;;;;;;4941513;29;19919;-85
2022/10/24 09:38:17;;;;;;;;;;;;;;;;;;4939934;29;19966;-85
2022/10/24 09:40:48;;;;;;;;;;;;;;;;;;4940931;29;20359;-86
2022/10/24 09:43:19;;;;;;;;;;;;;;;;;;4939222;29;19922;-88
2022/10/24 09:45:47;;;;;;;;;;;;;;;;;;4940652;29;20013;-86
2022/10/24 09:48:17;;;;;;;;;;;;;;;;;;4939831;29;19919;-83
2022/10/24 09:50:43;;;;;;;;;;;;;;;;;;4942344;29;19919;-85
2022/10/24 09:53:19;;;;;;;;;;;;;;;;;;4944789;29;20362;-87
2022/10/24 09:55:45;;;;;;;;;;;;;;;;;;4948818;29;19973;-84
2022/10/24 09:58:16;;;;;;;;;;;;;;;;;;4948706;29;20386;-85
2022/10/24 10:00:42;;;;;;;;;;;;;;;;;;4944728;29;19919;-86
2022/10/24 10:03:20;;;;;;;;;;;;;;;;;;4944692;29;19929;-82
2022/10/24 10:05:47;;;;;;;;;;;;;;;;;;4945588;29;19978;-83
2022/10/24 10:08:20;;;;;;;;;;;;;;;;;;4947059;29;19968;-88
2022/10/24 10:10:54;;;;;;;;;;;;;;;;;;4941560;29;19926;-85
2022/10/24 10:13:23;;;;;;;;;;;;;;;;;;4941640;29;19918;-86
2022/10/24 10:15:59;;;;;;;;;;;;;;;;;;4940213;29;19919;-87
2022/10/24 10:18:31;;;;;;;;;;;;;;;;;;4923686;29;19966;-87
2022/10/24 10:21:01;;;;;;;;;;;;;;;;;;4939255;29;19926;-86
2022/10/24 10:23:35;;;;;;;;;;;;;;;;;;4939710;29;20294;-87
2022/10/24 10:26:05;;;;;;;;;;;;;;;;;;4923743;29;19919;-85
2022/10/24 10:28:33;;;;;;;;;;;;;;;;;;4940052;29;19919;-87
2022/10/24 10:30:59;;;;;;;;;;;;;;;;;;4939208;29;19946;-86
2022/10/24 10:33:24;;;;;;;;;;;;;;;;;;4938960;29;19955;-85
2022/10/24 10:36:03;;;;;;;;;;;;;;;;;;4938795;29;19919;-87
2022/10/24 10:38:47;;;;;;;;;;;;;;;;;;4938806;29;19923;-84
2022/10/24 10:41:17;;;;;;;;;;;;;;;;;;4938735;29;19981;-84
2022/10/24 10:43:42;;;;;;;;;;;;;;;;;;4938716;29;19936;-85
2022/10/24 10:46:30;;;;;;;;;;;;;;;;;;4938690;29;19923;-87
2022/10/24 10:49:01;;;;;;;;;;;;;;;;;;4938652;29;19918;-85
2022/10/24 10:51:42;;;;;;;;;;;;;;;;;;4938625;29;19966;-86
2022/10/24 10:54:23;;;;;;;;;;;;;;;;;;4953275;29;19926;-86
2022/10/24 10:57:14;;;;;;;;;;;;;;;;;;4938358;29;19919;-85
2022/10/24 10:59:40;;;;;;;;;;;;;;;;;;4935396;29;19925;-86
2022/10/24 11:02:17;;;;;;;;;;;;;;;;;;4938147;29;20425;-85
2022/10/24 11:04:50;;;;;;;;;;;;;;;;;;4938318;29;19974;-86
2022/10/24 11:07:15;;;;;;;;;;;;;;;;;;4938480;29;19923;-86
2022/10/24 11:09:45;;;;;;;;;;;;;;;;;;4952959;29;20374;-86
2022/10/24 11:12:11;;;;;;;;;;;;;;;;;;4938146;29;19923;-87
2022/10/24 11:14:44;;;;;;;;;;;;;;;;;;4938390;29;19945;-86
2022/10/24 11:17:38;;;;;;;;;;;;;;;;;;4938303;29;20349;-86
2022/10/24 11:20:04;;;;;;;;;;;;;;;;;;4925431;29;19938;-86
2022/10/24 11:22:39;;;;;;;;;;;;;;;;;;4938114;29;19922;-86
2022/10/24 11:25:07;;;;;;;;;;;;;;;;;;4937912;29;19915;-86
2022/10/24 11:27:42;;;;;;;;;;;;;;;;;;4937905;29;19927;-88
2022/10/24 11:30:17;;;;;;;;;;;;;;;;;;4937815;29;19921;-86
2022/10/24 11:32:43;;;;;;;;;;;;;;;;;;4938142;29;19927;-86
2022/10/24 11:35:08;;;;;;;;;;;;;;;;;;4952404;29;19922;-87
2022/10/24 11:37:37;;;;;;;;;;;;;;;;;;4952306;29;20374;-86
2022/10/24 11:40:05;;;;;;;;;;;;;;;;;;4935619;29;19919;-85
2022/10/24 11:42:37;;;;;;;;;;;;;;;;;;4937786;29;19997;-85
2022/10/24 11:45:02;;;;;;;;;;;;;;;;;;4937797;29;19974;-86
2022/10/24 11:47:27;;;;;;;;;;;;;;;;;;4938138;29;19919;-85
2022/10/24 11:49:53;;;;;;;;;;;;;;;;;;4937475;29;19922;-84
2022/10/24 11:52:23;;;;;;;;;;;;;;;;;;4937364;29;19954;-84
2022/10/24 11:54:52;;;;;;;;;;;;;;;;;;4937418;29;19925;-84
2022/10/24 11:57:22;;;;;;;;;;;;;;;;;;4936591;29;20208;-85
2022/10/24 11:59:50;;;;;;;;;;;;;;;;;;4937376;29;19918;-85
2022/10/24 12:02:34;;;;;;;;;;;;;;;;;;4920040;29;19930;-86
2022/10/24 12:05:02;;;;;;;;;;;;;;;;;;4937484;29;19923;-84
2022/10/24 12:07:37;;;;;;;;;;;;;;;;;;4937172;29;19919;-85
2022/10/24 12:10:21;;;;;;;;;;;;;;;;;;4951908;29;20353;-84
2022/10/24 12:13:05;;;;;;;;;;;;;;;;;;4938201;29;19926;-87
2022/10/24 12:15:38;;;;;;;;;;;;;;;;;;4937117;29;19946;-86
2022/10/24 12:18:09;;;;;;;;;;;;;;;;;;4937237;29;20396;-86
2022/10/24 12:20:35;;;;;;;;;;;;;;;;;;4941017;29;19919;-85
2022/10/24 12:23:01;;;;;;;;;;;;;;;;;;4945402;29;19962;-88
2022/10/24 12:25:32;;;;;;;;;;;;;;;;;;4956323;29;19941;-87
2022/10/24 12:28:16;;;;;;;;;;;;;;;;;;4940196;29;19965;-85
2022/10/24 12:30:42;;;;;;;;;;;;;;;;;;4937793;29;19974;-85
2022/10/24 12:33:07;;;;;;;;;;;;;;;;;;4937562;29;19919;-87
2022/10/24 12:35:43;;;;;;;;;;;;;;;;;;4937204;29;19929;-86
2022/10/24 12:38:15;;;;;;;;;;;;;;;;;;4938797;29;20005;-87
2022/10/24 12:40:48;;;;;;;;;;;;;;;;;;4941659;29;19919;-85
2022/10/24 12:43:27;;;;;;;;;;;;;;;;;;4974722;29;19918;-85
2022/10/24 12:45:53;;;;;;;;;;;;;;;;;;4952396;29;19922;-86
2022/10/24 12:48:29;;;;;;;;;;;;;;;;;;4939774;29;20390;-86
2022/10/24 12:51:03;;;;;;;;;;;;;;;;;;4956512;28;19927;-87
2022/10/24 12:53:30;;;;;;;;;;;;;;;;;;4943856;29;19919;-86
2022/10/24 12:55:59;;;;;;;;;;;;;;;;;;4959982;29;20277;-86
2022/10/24 12:58:28;;;;;;;;;;;;;;;;;;4963005;29;19918;-87
2022/10/24 13:00:55;;;;;;;;;;;;;;;;;;4961035;29;19945;-86
2022/10/24 13:03:30;;;;;;;;;;;;;;;;;;4940431;29;20382;-86
2022/10/24 13:06:07;;;;;;;;;;;;;;;;;;4939439;29;19926;-88
2022/10/24 13:08:40;;;;;;;;;;;;;;;;;;4941962;29;19946;-87
2022/10/24 13:11:25;;;;;;;;;;;;;;;;;;4943029;29;20272;-88
2022/10/24 13:14:13;;;;;;;;;;;;;;;;;;4944125;29;19919;-87
2022/10/24 13:16:57;;;;;;;;;;;;;;;;;;4925254;29;19938;-85
2022/10/24 13:19:24;;;;;;;;;;;;;;;;;;4942681;29;20095;-83
2022/10/24 13:21:53;;;;;;;;;;;;;;;;;;4943457;29;19947;-86
2022/10/24 13:24:19;;;;;;;;;;;;;;;;;;4944266;29;20310;-86
2022/10/24 13:26:47;;;;;;;;;;;;;;;;;;4944471;29;19919;-86
2022/10/24 13:29:12;;;;;;;;;;;;;;;;;;4943153;29;20005;-85
2022/10/24 13:31:39;;;;;;;;;;;;;;;;;;4944081;29;19946;-87
2022/10/24 13:34:22;;;;;;;;;;;;;;;;;;4944460;29;19942;-87
2022/10/24 13:36:55;;;;;;;;;;;;;;;;;;4945094;29;20391;-84
2022/10/24 13:39:23;;;;;;;;;;;;;;;;;;4943978;29;19922;-85
2022/10/24 13:41:49;;;;;;;;;;;;;;;;;;4943797;29;20371;-86
2022/10/24 13:44:29;;;;;;;;;;;;;;;;;;4943944;29;20339;-88
2022/10/24 13:47:13;;;;;;;;;;;;;;;;;;4942038;29;19919;-86
2022/10/24 13:49:49;;;;;;;;;;;;;;;;;;4944333;29;19925;-86
2022/10/24 13:52:17;;;;;;;;;;;;;;;;;;4942300;29;19918;-87
2022/10/24 13:54:44;;;;;;;;;;;;;;;;;;4939625;29;20338;-86
2022/10/24 13:57:23;;;;;;;;;;;;;;;;;;4941465;29;20389;-87
2022/10/24 13:59:59;;;;;;;;;;;;;;;;;;4940926;29;19925;-86
2022/10/24 14:02:26;;;;;;;;;;;;;;;;;;4954368;28;20010;-87
2022/10/24 14:04:52;;;;;;;;;;;;;;;;;;4958776;29;19974;-83
2022/10/24 14:07:19;;;;;;;;;;;;;;;;;;4959279;29;19918;-87
2022/10/24 14:09:49;;;;;;;;;;;;;;;;;;4947800;29;19954;-87
2022/10/24 14:12:25;;;;;;;;;;;;;;;;;;4971822;29;19922;-85
2022/10/24 14:14:51;;;;;;;;;;;;;;;;;;4951208;29;19914;-87
2022/10/24 14:17:30;;;;;;;;;;;;;;;;;;4968108;29;20277;-85
2022/10/24 14:19:55;;;;;;;;;;;;;;;;;;4962634;29;20365;-86
2022/10/24 14:22:23;;;;;;;;;;;;;;;;;;4947524;29;19973;-86
2022/10/24 14:24:49;;;;;;;;;;;;;;;;;;4965206;29;19929;-85
2022/10/24 14:27:15;;;;;;;;;;;;;;;;;;4949049;29;19918;-88
2022/10/24 14:29:50;;;;;;;;;;;;;;;;;;4963235;29;20329;-88
2022/10/24 14:32:15;;;;;;;;;;;;;;;;;;4965032;29;19919;-87
2022/10/24 14:34:41;;;;;;;;;;;;;;;;;;4949228;29;19919;-86
2022/10/24 14:37:08;;;;;;;;;;;;;;;;;;4947108;29;19925;-88
2022/10/24 14:39:33;;;;;;;;;;;;;;;;;;4961686;29;19922;-88
2022/10/24 14:42:00;;;;;;;;;;;;;;;;;;4944076;29;20369;-85
2022/10/24 14:44:26;;;;;;;;;;;;;;;;;;4944903;29;19914;-85
2022/10/24 14:47:00;;;;;;;;;;;;;;;;;;4961440;29;19925;-85
2022/10/24 14:49:26;;;;;;;;;;;;;;;;;;4961570;29;19961;-88
2022/10/24 14:51:53;;;;;;;;;;;;;;;;;;4943733;29;19919;-87
2022/10/24 14:54:20;;;;;;;;;;;;;;;;;;4963669;29;19914;-87
2022/10/24 14:56:48;;;;;;;;;;;;;;;;;;4962505;29;19918;-85
2022/10/24 14:59:34;;;;;;;;;;;;;;;;;;4964353;29;19922;-87
2022/10/24 15:02:02;;;;;;;;;;;;;;;;;;4966052;29;19933;-86
2022/10/24 15:04:29;;;;;;;;;;;;;;;;;;4970163;29;19918;-85
2022/10/24 15:06:55;;;;;;;;;;;;;;;;;;4961807;29;19984;-86
2022/10/24 15:09:21;;;;;;;;;;;;;;;;;;4943211;29;20366;-86
2022/10/24 15:12:00;;;;;;;;;;;;;;;;;;4962375;29;19916;-87
2022/10/24 15:14:34;;;;;;;;;;;;;;;;;;4960146;28;19946;-85
2022/10/24 15:17:22;;;;;;;;;;;;;;;;;;4960266;29;19919;-86
2022/10/24 15:19:48;;;;;;;;;;;;;;;;;;4954085;29;19946;-87
2022/10/24 15:22:31;;;;;;;;;;;;;;;;;;4945949;29;19923;-86
2022/10/24 15:24:59;;;;;;;;;;;;;;;;;;4945842;29;20009;-88
2022/10/24 15:27:27;;;;;;;;;;;;;;;;;;4962635;29;19918;-88
2022/10/24 15:29:52;;;;;;;;;;;;;;;;;;4962145;29;19919;-86
2022/10/24 15:32:18;;;;;;;;;;;;;;;;;;4946019;29;19922;-86
2022/10/24 15:34:43;;;;;;;;;;;;;;;;;;4942133;29;19926;-87
2022/10/24 15:37:19;;;;;;;;;;;;;;;;;;4944967;29;19925;-86
2022/10/24 15:39:45;;;;;;;;;;;;;;;;;;4960527;29;20092;-85
2022/10/24 15:42:10;;;;;;;;;;;;;;;;;;4962638;29;19950;-86
2022/10/24 15:44:36;;;;;;;;;;;;;;;;;;4946071;29;19925;-87
2022/10/24 15:47:01;;;;;;;;;;;;;;;;;;4946288;29;19918;-86
2022/10/24 15:49:27;;;;;;;;;;;;;;;;;;4959366;29;20366;-86
2022/10/24 15:51:53;;;;;;;;;;;;;;;;;;4957030;29;19941;-87
2022/10/24 15:54:20;;;;;;;;;;;;;;;;;;4939679;29;19965;-84
2022/10/24 15:56:45;;;;;;;;;;;;;;;;;;4957991;29;20085;-87
2022/10/24 15:59:11;;;;;;;;;;;;;;;;;;4958814;29;19954;-86
2022/10/24 16:01:39;;;;;;;;;;;;;;;;;;4939625;29;19922;-88
2022/10/24 16:04:06;;;;;;;;;;;;;;;;;;4961070;29;20730;-88
2022/10/24 16:06:33;;;;;;;;;;;;;;;;;;4960915;29;19953;-88
2022/10/24 16:08:59;;;;;;;;;;;;;;;;;;4924518;29;20390;-86
2022/10/24 16:11:24;;;;;;;;;;;;;;;;;;4937939;29;19974;-88
2022/10/24 16:13:50;;;;;;;;;;;;;;;;;;4941338;29;19942;-86
2022/10/24 16:16:15;;;;;;;;;;;;;;;;;;4941574;29;20289;-87
2022/10/24 16:18:40;;;;;;;;;;;;;;;;;;4941735;29;19926;-86
2022/10/24 16:21:06;;;;;;;;;;;;;;;;;;4924148;29;19967;-85
2022/10/24 16:23:32;;;;;;;;;;;;;;;;;;4941952;29;19919;-87
2022/10/24 16:25:58;;;;;;;;;;;;;;;;;;4942607;29;19926;-87
2022/10/24 16:28:24;;;;;;;;;;;;;;;;;;4944084;29;19929;-85
2022/10/24 16:30:50;;;;;;;;;;;;;;;;;;4942613;29;19969;-86
2022/10/24 16:33:18;;;;;;;;;;;;;;;;;;4946294;29;19998;-86
2022/10/24 16:35:46;;;;;;;;;;;;;;;;;;4929119;29;20025;-84
2022/10/24 16:38:12;;;;;;;;;;;;;;;;;;4927107;29;19923;-86
2022/10/24 16:40:39;;;;;;;;;;;;;;;;;;4947917;29;19919;-83
2022/10/24 16:43:05;;;;;;;;;;;;;;;;;;4951030;29;19919;-83
2022/10/24 16:45:31;;;;;;;;;;;;;;;;;;4964994;29;19925;-84
2022/10/24 16:47:57;;;;;;;;;;;;;;;;;;4971036;29;19919;-82
2022/10/24 16:50:24;;;;;;;;;;;;;;;;;;4966408;29;19919;-87
2022/10/24 16:52:54;;;;;;;;;;;;;;;;;;4969102;29;19925;-86
2022/10/24 16:55:20;;;;;;;;;;;;;;;;;;4964914;29;19969;-87